EGUB

RAF Benson

Airport
ICAO code
EGUB
Summary
ICAO Region
EUR
ICAO Territory
Location

Oxfordshire, United Kingdom,

Elevation
226 ft
Coordinates
51° 36' 59" N , 1° 5' 45" W
KCC
Cfb
Airport WX
Fog
Metar
Observation
EGUB 171950Z AUTO 36008KT 9999 OVC011/// 18/15 Q1014
Station
Benson
Date/Time
2022-08-17 19:50:00
Wind direction
360°
Wind speed
08 kts
Lowest cloud amount
overcast
Temperature
18°C
Dew point
15°C
Humidity
82%
QNH
1014 hPa
Weather condition
n/a

Description

Military airbase South East of Oxford hosting support helicopters and basic training aircraft.

Climatology

Temperate Marine climate/Oceanic climate (Köppen climate classification Cfb). Moderately cool summer and comparatively warm winter with a temperature range of only 14°C. Prevailing south-westerly winds from the Atlantic Ocean.

Runways

Designator Length Width Surface Rops
6/24 1458 30 ASP No/No
1/19 1823 46 ASP No/No

Airport map

Aerial View

SKYbrary Partners:

Safety knowledge contributed by: